createdAt,value
2018-10-06T00:00:35.072Z,9.43
2018-10-06T00:03:05.554Z,9.20
2018-10-06T00:05:34.218Z,9.37
2018-10-06T00:08:02.864Z,10.15
2018-10-06T00:10:31.943Z,10.18
2018-10-06T00:13:01.346Z,10.68
2018-10-06T00:15:30.725Z,11.00
2018-10-06T00:17:59.452Z,10.47
2018-10-06T00:20:28.130Z,11.77
2018-10-06T00:22:56.805Z,10.88
2018-10-06T00:25:25.479Z,11.95
2018-10-06T00:27:54.159Z,11.40
2018-10-06T00:30:22.994Z,11.60
2018-10-06T00:32:51.695Z,13.40
2018-10-06T00:35:20.358Z,12.90
2018-10-06T00:37:49.042Z,13.62
2018-10-06T00:40:17.702Z,12.90
2018-10-06T00:42:46.335Z,11.53
2018-10-06T00:45:15.222Z,11.73
2018-10-06T00:47:43.892Z,11.15
2018-10-06T00:50:12.464Z,12.58
2018-10-06T00:52:41.103Z,11.63
2018-10-06T00:55:09.740Z,11.70
2018-10-06T00:57:38.914Z,12.70
2018-10-06T01:00:07.758Z,13.13
2018-10-06T01:02:36.572Z,12.68
2018-10-06T01:05:06.518Z,13.35
2018-10-06T01:07:35.362Z,12.63
2018-10-06T01:10:04.240Z,12.68
2018-10-06T01:12:33.009Z,12.80
2018-10-06T01:15:02.056Z,13.38
2018-10-06T01:17:30.726Z,13.05
2018-10-06T01:19:59.334Z,13.08
2018-10-06T01:22:32.314Z,13.68
2018-10-06T01:25:01.068Z,13.48
2018-10-06T01:27:29.738Z,13.32
2018-10-06T01:29:58.481Z,12.43
2018-10-06T01:32:27.199Z,10.20
2018-10-06T01:34:55.898Z,10.08
2018-10-06T01:37:24.651Z,11.75
2018-10-06T01:39:53.401Z,12.37
2018-10-06T01:42:22.545Z,13.47
2018-10-06T01:44:51.298Z,14.68
2018-10-06T01:47:20.392Z,14.45
2018-10-06T01:49:49.057Z,14.33
2018-10-06T01:52:17.774Z,14.63
2018-10-06T01:54:46.507Z,14.53
2018-10-06T01:57:15.153Z,14.40
2018-10-06T01:59:43.836Z,13.50
2018-10-06T02:02:12.528Z,15.43
2018-10-06T02:04:41.223Z,14.80
2018-10-06T02:07:09.901Z,14.90
2018-10-06T02:09:39.672Z,13.38
2018-10-06T02:12:08.422Z,13.78
2018-10-06T02:14:37.174Z,13.60
2018-10-06T02:17:05.939Z,14.10
2018-10-06T02:19:34.648Z,15.00
2018-10-06T02:22:05.723Z,14.87
2018-10-06T02:24:34.380Z,14.50
2018-10-06T02:27:03.779Z,15.18
2018-10-06T02:29:32.618Z,15.98
2018-10-06T02:32:01.305Z,15.72
2018-10-06T02:34:29.965Z,15.75
2018-10-06T02:36:58.957Z,16.05
2018-10-06T02:39:27.805Z,15.32
2018-10-06T02:41:56.435Z,14.65
2018-10-06T02:45:54.657Z,14.60
2018-10-06T02:48:23.274Z,15.93
2018-10-06T02:50:51.942Z,16.45
2018-10-06T02:53:20.720Z,16.25
2018-10-06T02:55:49.539Z,17.10
2018-10-06T02:58:18.207Z,16.80
2018-10-06T03:00:46.941Z,17.40
2018-10-06T03:03:15.529Z,18.00
2018-10-06T03:05:45.048Z,16.40
2018-10-06T03:08:15.294Z,16.40
2018-10-06T03:10:43.894Z,15.93
2018-10-06T03:13:12.569Z,16.82
2018-10-06T03:15:41.581Z,16.52
2018-10-06T03:18:10.314Z,17.37
2018-10-06T03:20:39.021Z,17.42
2018-10-06T03:23:07.872Z,17.57
2018-10-06T03:25:36.606Z,15.70
2018-10-06T03:28:05.300Z,16.93
2018-10-06T03:30:34.244Z,16.12
2018-10-06T03:33:02.957Z,15.95
2018-10-06T03:35:31.730Z,19.00
2018-10-06T03:38:00.513Z,15.38
2018-10-06T03:40:29.242Z,14.73
2018-10-06T03:42:58.045Z,14.95
2018-10-06T03:45:26.810Z,14.07
2018-10-06T03:47:55.481Z,13.62
2018-10-06T03:50:24.136Z,13.68
2018-10-06T03:52:53.258Z,13.83
2018-10-06T03:55:22.083Z,14.98
2018-10-06T03:57:50.787Z,16.27
2018-10-06T04:00:21.051Z,16.45
2018-10-06T04:02:49.759Z,16.97
2018-10-06T04:05:18.466Z,16.95
2018-10-06T04:07:47.222Z,17.30
2018-10-06T04:10:15.894Z,18.27
2018-10-06T04:12:44.463Z,16.57
2018-10-06T04:15:13.296Z,17.07
2018-10-06T04:17:42.196Z,16.60
2018-10-06T04:20:11.922Z,15.60
2018-10-06T04:22:40.710Z,16.20
2018-10-06T04:25:09.430Z,16.17
2018-10-06T04:27:38.168Z,16.30
2018-10-06T04:30:07.451Z,17.27
2018-10-06T04:32:36.046Z,16.32
2018-10-06T04:35:04.864Z,15.95
2018-10-06T04:37:33.766Z,16.27
2018-10-06T04:40:02.561Z,16.07
2018-10-06T04:42:31.304Z,15.95
2018-10-06T04:45:00.958Z,15.90
2018-10-06T04:47:29.636Z,15.50
2018-10-06T04:50:00.344Z,16.00
2018-10-06T04:52:29.171Z,15.53
2018-10-06T04:54:57.835Z,15.88
2018-10-06T04:57:26.547Z,15.90
2018-10-06T04:59:55.607Z,16.53
2018-10-06T05:02:24.312Z,17.37
2018-10-06T05:04:53.096Z,15.20
2018-10-06T05:07:21.870Z,15.65
2018-10-06T05:09:50.552Z,14.87
2018-10-06T05:12:19.725Z,15.53
2018-10-06T05:14:48.668Z,15.70
2018-10-06T05:17:17.349Z,15.75
2018-10-06T05:19:46.140Z,15.80
2018-10-06T05:22:15.009Z,15.68
2018-10-06T05:24:44.996Z,14.93
2018-10-06T05:27:13.662Z,15.48
2018-10-06T05:29:42.509Z,14.70
2018-10-06T05:32:11.227Z,14.10
2018-10-06T05:34:39.899Z,14.13
2018-10-06T05:37:08.591Z,14.83
2018-10-06T05:39:37.329Z,15.10
2018-10-06T05:42:06.017Z,14.78
2018-10-06T05:44:35.030Z,14.87
2018-10-06T05:47:06.358Z,15.58
2018-10-06T05:49:35.126Z,16.37
2018-10-06T05:52:03.792Z,16.77
2018-10-06T05:54:32.613Z,17.65
2018-10-06T05:57:01.736Z,18.77
2018-10-06T05:59:30.384Z,17.20
2018-10-06T06:01:59.876Z,17.07
2018-10-06T06:04:28.647Z,16.52
2018-10-06T06:06:57.358Z,17.07
2018-10-06T06:09:26.083Z,16.57
2018-10-06T06:11:54.798Z,16.67
2018-10-06T06:14:24.376Z,16.60
2018-10-06T06:16:54.503Z,17.32
2018-10-06T06:19:23.303Z,16.90
2018-10-06T06:21:51.952Z,16.23
2018-10-06T06:24:20.807Z,16.17
2018-10-06T06:26:49.649Z,16.23
2018-10-06T06:29:18.184Z,16.00
2018-10-06T06:31:46.936Z,15.40
2018-10-06T06:34:16.999Z,16.10
2018-10-06T06:36:45.714Z,16.43
2018-10-06T06:39:24.536Z,15.83
2018-10-06T06:41:53.220Z,15.95
2018-10-06T06:44:22.088Z,16.55
2018-10-06T06:46:50.643Z,17.35
2018-10-06T06:49:19.883Z,16.62
2018-10-06T06:51:48.656Z,18.05
2018-10-06T06:54:18.266Z,18.10
2018-10-06T06:56:47.067Z,17.92
2018-10-06T06:59:15.797Z,17.85
2018-10-06T07:01:44.583Z,18.70
2018-10-06T07:04:15.396Z,18.27
2018-10-06T07:06:44.094Z,17.70
2018-10-06T07:09:12.804Z,18.07
2018-10-06T07:11:44.118Z,18.32
2018-10-06T07:14:17.784Z,18.90
2018-10-06T07:18:16.331Z,19.30
2018-10-06T07:20:45.089Z,20.80
2018-10-06T07:23:13.758Z,26.68
2018-10-06T07:25:42.774Z,25.43
2018-10-06T07:28:11.603Z,25.17
2018-10-06T07:30:46.139Z,34.95
2018-10-06T07:33:18.369Z,41.53
2018-10-06T07:35:49.634Z,52.93
2018-10-06T07:38:19.544Z,52.17
2018-10-06T07:42:20.722Z,48.93
2018-10-06T07:44:53.878Z,45.48
2018-10-06T07:47:22.769Z,44.10
2018-10-06T07:49:51.402Z,37.85
2018-10-06T07:52:20.088Z,37.70
2018-10-06T07:54:48.731Z,37.48
2018-10-06T07:57:17.491Z,38.55
2018-10-06T07:59:46.075Z,36.38
2018-10-06T08:02:14.854Z,34.95
2018-10-06T08:04:43.553Z,33.33
2018-10-06T08:07:12.682Z,23.60
2018-10-06T08:09:41.467Z,26.52
2018-10-06T08:12:10.128Z,26.00
2018-10-06T08:14:38.857Z,26.62
2018-10-06T08:17:07.443Z,24.50
2018-10-06T08:19:36.075Z,23.87
2018-10-06T08:25:04.712Z,25.75
2018-10-06T08:27:33.513Z,25.37
2018-10-06T08:30:02.414Z,23.60
2018-10-06T08:32:31.214Z,21.80
2018-10-06T08:34:59.818Z,20.90
2018-10-06T08:38:57.854Z,19.48
2018-10-06T08:41:26.496Z,18.43
2018-10-06T08:43:55.520Z,19.12
2018-10-06T08:46:25.253Z,18.87
2018-10-06T08:48:58.878Z,19.12
2018-10-06T08:51:29.954Z,19.57
2018-10-06T08:53:58.876Z,18.73
2018-10-06T08:56:27.530Z,18.32
2018-10-06T08:58:57.534Z,19.20
2018-10-06T09:01:27.573Z,19.95
2018-10-06T09:03:56.638Z,20.27
2018-10-06T09:06:28.039Z,21.70
2018-10-06T09:08:57.606Z,21.30
2018-10-06T09:11:26.429Z,23.73
2018-10-06T09:13:55.939Z,27.80
2018-10-06T09:16:25.280Z,26.45
2018-10-06T09:18:53.944Z,28.77
2018-10-06T09:21:22.627Z,29.75
2018-10-06T09:23:57.759Z,31.82
2018-10-06T09:26:26.522Z,30.70
2018-10-06T09:28:55.327Z,31.12
2018-10-06T09:31:24.054Z,29.92
2018-10-06T09:33:52.758Z,29.53
2018-10-06T09:36:22.427Z,28.75
2018-10-06T09:38:53.122Z,28.17
2018-10-06T09:41:21.936Z,26.63
2018-10-06T09:43:50.618Z,25.85
2018-10-06T09:46:19.573Z,26.02
2018-10-06T09:48:50.434Z,25.25
2018-10-06T09:51:20.171Z,26.20
2018-10-06T09:53:48.935Z,19.90
2018-10-06T09:56:17.658Z,19.10
2018-10-06T09:58:47.004Z,19.70
2018-10-06T10:01:21.039Z,18.15
2018-10-06T10:03:55.858Z,20.05
2018-10-06T10:06:24.632Z,22.77
2018-10-06T10:08:53.602Z,24.92
2018-10-06T10:11:22.707Z,25.80
2018-10-06T10:13:51.860Z,27.05
2018-10-06T10:16:20.780Z,30.48
2018-10-06T10:18:49.472Z,31.23
2018-10-06T10:21:22.616Z,30.60
2018-10-06T10:23:51.413Z,31.00
2018-10-06T10:26:20.058Z,29.92
2018-10-06T10:28:48.845Z,28.83
2018-10-06T10:31:17.651Z,29.20
2018-10-06T10:33:46.302Z,27.98
2018-10-06T10:36:15.012Z,24.75
2018-10-06T10:38:43.709Z,22.02
2018-10-06T10:41:12.462Z,19.42
2018-10-06T10:43:41.384Z,15.00
2018-10-06T10:46:10.097Z,14.90
2018-10-06T10:48:39.682Z,13.18
2018-10-06T10:51:12.411Z,12.33
2018-10-06T10:53:45.780Z,10.93
2018-10-06T10:56:18.406Z,11.80
2018-10-06T10:58:47.239Z,11.73
2018-10-06T11:01:16.043Z,11.77
2018-10-06T11:03:45.095Z,11.38
2018-10-06T11:06:13.758Z,10.95
2018-10-06T11:08:42.447Z,10.58
2018-10-06T11:11:11.101Z,11.13
2018-10-06T11:13:39.879Z,10.70
2018-10-06T11:20:46.214Z,11.30
2018-10-06T11:23:15.002Z,12.43
2018-10-06T11:25:43.670Z,12.82
2018-10-06T11:28:12.452Z,12.58
2018-10-06T11:30:41.122Z,11.65
2018-10-06T11:33:10.317Z,11.70
2018-10-06T11:35:39.010Z,10.07
2018-10-06T11:38:07.851Z,11.22
2018-10-06T11:40:36.466Z,10.08
2018-10-06T11:43:05.237Z,10.80
2018-10-06T11:45:33.909Z,10.55
2018-10-06T11:48:02.586Z,11.10
2018-10-06T11:50:31.280Z,10.53
2018-10-06T11:52:59.976Z,11.05
2018-10-06T11:55:28.639Z,11.33
2018-10-06T11:57:57.272Z,10.90
2018-10-06T12:01:55.531Z,11.25
2018-10-06T12:04:24.450Z,11.10
2018-10-06T12:06:53.116Z,11.07
2018-10-06T12:09:23.981Z,11.43
2018-10-06T12:11:52.747Z,11.07
2018-10-06T12:14:21.466Z,10.80
2018-10-06T12:16:50.261Z,10.53
2018-10-06T12:19:19.147Z,11.05
2018-10-06T12:21:48.286Z,11.78
2018-10-06T12:24:17.123Z,10.43
2018-10-06T12:26:45.859Z,10.07
2018-10-06T12:29:14.672Z,10.68
2018-10-06T12:31:43.452Z,10.32
2018-10-06T12:34:12.320Z,10.70
2018-10-06T12:36:41.030Z,10.23
2018-10-06T12:39:09.839Z,11.17
2018-10-06T12:41:38.522Z,10.03
2018-10-06T12:44:07.302Z,10.27
2018-10-06T12:46:35.982Z,10.38
2018-10-06T12:49:04.846Z,11.00
2018-10-06T12:51:33.649Z,10.68
2018-10-06T12:54:02.319Z,11.78
2018-10-06T12:56:31.228Z,11.20
2018-10-06T12:59:00.064Z,11.55
2018-10-06T13:01:28.928Z,11.20
2018-10-06T13:03:57.834Z,10.43
2018-10-06T13:06:26.738Z,10.60
2018-10-06T13:08:55.423Z,10.70
2018-10-06T13:11:24.122Z,11.15
2018-10-06T13:13:53.002Z,10.85
2018-10-06T13:16:21.671Z,13.05
2018-10-06T13:18:50.457Z,11.20
2018-10-06T13:21:19.153Z,11.63
2018-10-06T13:23:47.987Z,12.68
2018-10-06T13:26:17.017Z,11.33
2018-10-06T13:28:49.124Z,10.90
2018-10-06T13:31:17.854Z,10.43
2018-10-06T13:33:46.624Z,9.03
2018-10-06T13:36:15.286Z,9.90
2018-10-06T13:38:43.951Z,10.08
2018-10-06T13:41:12.845Z,8.78
2018-10-06T13:43:41.453Z,9.15
2018-10-06T13:46:10.259Z,8.75
2018-10-06T13:48:39.178Z,8.65
2018-10-06T13:51:08.072Z,8.70
2018-10-06T13:53:36.829Z,8.07
2018-10-06T13:56:07.074Z,8.10
2018-10-06T13:58:35.892Z,8.58
2018-10-06T14:01:04.744Z,8.80
2018-10-06T14:03:33.489Z,8.48
2018-10-06T14:06:02.301Z,8.87
2018-10-06T14:08:33.696Z,9.03
2018-10-06T14:11:02.384Z,9.15
2018-10-06T14:13:31.074Z,9.40
2018-10-06T14:15:59.801Z,12.05
2018-10-06T14:18:28.423Z,11.60
2018-10-06T14:20:57.127Z,11.90
2018-10-06T14:23:26.599Z,12.20
2018-10-06T14:25:55.229Z,12.23
2018-10-06T14:28:25.220Z,11.57
2018-10-06T14:30:53.907Z,11.95
2018-10-06T14:33:22.569Z,12.93
2018-10-06T14:35:51.541Z,13.20
2018-10-06T14:38:20.283Z,11.90
2018-10-06T14:40:49.015Z,12.58
2018-10-06T14:43:17.741Z,11.88
2018-10-06T14:45:47.590Z,16.57
2018-10-06T14:48:16.401Z,12.47
2018-10-06T14:50:45.083Z,12.58
2018-10-06T14:53:13.826Z,12.40
2018-10-06T14:55:42.542Z,11.65
2018-10-06T14:58:11.315Z,11.38
2018-10-06T15:00:40.584Z,11.73
2018-10-06T15:03:09.323Z,12.90
2018-10-06T15:05:38.437Z,11.48
2018-10-06T15:08:07.757Z,10.03
2018-10-06T15:10:36.686Z,12.05
2018-10-06T15:13:05.410Z,11.73
2018-10-06T15:15:34.116Z,12.58
2018-10-06T15:18:06.195Z,12.45
2018-10-06T15:20:36.279Z,12.58
2018-10-06T15:23:06.346Z,12.37
2018-10-06T15:25:34.959Z,12.03
2018-10-06T15:28:06.110Z,11.55
2018-10-06T15:30:34.714Z,10.78
2018-10-06T15:33:03.349Z,10.70
2018-10-06T15:35:32.049Z,10.58
2018-10-06T15:38:00.917Z,13.38
2018-10-06T15:40:29.690Z,14.47
2018-10-06T15:42:58.437Z,14.43
2018-10-06T15:45:27.257Z,14.15
2018-10-06T15:47:55.942Z,13.13
2018-10-06T15:50:24.657Z,11.83
2018-10-06T15:52:53.408Z,9.63
2018-10-06T15:55:22.228Z,9.40
2018-10-06T15:57:50.918Z,9.95
2018-10-06T16:00:19.597Z,9.93
2018-10-06T16:02:48.450Z,10.70
2018-10-06T16:05:17.095Z,9.65
2018-10-06T16:07:45.802Z,8.03
2018-10-06T16:10:14.608Z,9.10
2018-10-06T16:12:43.422Z,9.85
2018-10-06T16:15:12.351Z,10.90
2018-10-06T16:17:41.175Z,9.25
2018-10-06T16:20:09.890Z,7.97
2018-10-06T16:22:38.571Z,7.23
2018-10-06T16:25:07.245Z,7.00
2018-10-06T16:27:35.936Z,7.47
2018-10-06T16:30:05.107Z,7.47
2018-10-06T16:32:33.771Z,7.50
2018-10-06T16:35:02.497Z,7.92
2018-10-06T16:37:31.193Z,9.25
2018-10-06T16:39:59.965Z,9.63
2018-10-06T16:42:28.771Z,10.00
2018-10-06T16:44:57.623Z,10.95
2018-10-06T16:47:26.288Z,11.48
2018-10-06T16:49:55.085Z,13.15
2018-10-06T16:52:23.822Z,12.10
2018-10-06T16:54:52.606Z,14.80
2018-10-06T16:57:21.308Z,15.78
2018-10-06T16:59:49.938Z,13.28
2018-10-06T17:02:18.634Z,11.80
2018-10-06T17:04:47.482Z,12.00
2018-10-06T17:07:16.297Z,10.65
2018-10-06T17:09:45.022Z,13.73
2018-10-06T17:12:13.806Z,12.13
2018-10-06T17:14:42.621Z,13.55
2018-10-06T17:17:11.354Z,13.73
2018-10-06T17:19:40.012Z,15.15
2018-10-06T17:22:08.766Z,12.95
2018-10-06T17:24:37.504Z,13.60
2018-10-06T17:27:06.606Z,11.93
2018-10-06T17:29:35.865Z,11.38
2018-10-06T17:32:04.622Z,12.33
2018-10-06T17:34:33.459Z,13.55
2018-10-06T17:37:02.202Z,13.80
2018-10-06T17:39:31.040Z,13.62
2018-10-06T17:41:59.980Z,15.03
2018-10-06T17:44:29.073Z,13.60
2018-10-06T17:46:57.679Z,12.80
2018-10-06T17:49:26.586Z,12.60
2018-10-06T17:51:55.487Z,12.47
2018-10-06T17:54:24.244Z,12.40
2018-10-06T17:56:53.067Z,11.80
2018-10-06T17:59:21.724Z,11.80
2018-10-06T18:01:50.413Z,12.35
2018-10-06T18:04:19.147Z,12.18
2018-10-06T18:06:47.999Z,12.43
2018-10-06T18:09:16.880Z,11.33
2018-10-06T18:11:45.616Z,11.65
2018-10-06T18:14:14.336Z,12.23
2018-10-06T18:16:43.010Z,12.73
2018-10-06T18:19:11.746Z,13.08
2018-10-06T18:21:40.614Z,10.67
2018-10-06T18:24:09.238Z,11.03
2018-10-06T18:26:38.019Z,11.43
2018-10-06T18:29:06.935Z,12.00
2018-10-06T18:31:35.573Z,12.77
2018-10-06T18:34:04.302Z,10.90
2018-10-06T18:36:33.263Z,11.65
2018-10-06T18:39:01.937Z,12.10
2018-10-06T18:41:30.927Z,12.40
2018-10-06T18:43:59.810Z,11.25
2018-10-06T18:46:29.366Z,11.18
2018-10-06T18:48:58.325Z,11.33
2018-10-06T18:51:27.162Z,11.05
2018-10-06T18:53:56.007Z,11.10
2018-10-06T18:56:24.893Z,11.80
2018-10-06T18:58:53.551Z,11.22
2018-10-06T19:01:22.233Z,11.25
2018-10-06T19:03:51.087Z,11.65
2018-10-06T19:06:19.757Z,12.15
2018-10-06T19:08:48.604Z,11.50
2018-10-06T19:11:17.555Z,12.10
2018-10-06T19:13:46.475Z,13.03
2018-10-06T19:16:15.393Z,12.18
2018-10-06T19:18:44.249Z,11.90
2018-10-06T19:21:13.124Z,10.80
2018-10-06T19:23:41.928Z,10.07
2018-10-06T19:26:10.658Z,10.45
2018-10-06T19:28:39.473Z,10.18
2018-10-06T19:31:08.265Z,9.90
2018-10-06T19:33:37.938Z,10.82
2018-10-06T19:36:07.073Z,11.20
2018-10-06T19:38:35.939Z,11.33
2018-10-06T19:41:04.685Z,11.80
2018-10-06T19:43:33.304Z,11.20
2018-10-06T19:46:02.274Z,11.85
2018-10-06T19:48:31.116Z,11.90
2018-10-06T19:50:59.783Z,12.33
2018-10-06T19:53:28.775Z,12.30
2018-10-06T19:55:57.635Z,12.80
2018-10-06T19:58:26.514Z,11.63
2018-10-06T20:00:55.260Z,10.82
2018-10-06T20:03:24.085Z,10.30
2018-10-06T20:05:52.827Z,10.53
2018-10-06T20:08:22.202Z,10.55
2018-10-06T20:10:51.773Z,11.70
2018-10-06T20:13:20.473Z,9.10
2018-10-06T20:15:49.208Z,9.63
2018-10-06T20:18:18.010Z,9.28
2018-10-06T20:20:48.737Z,9.20
2018-10-06T20:23:20.591Z,9.03
2018-10-06T20:25:49.538Z,9.35
2018-10-06T20:28:18.267Z,13.72
2018-10-06T20:30:48.917Z,10.48
2018-10-06T20:33:17.588Z,11.90
2018-10-06T20:35:46.253Z,11.50
2018-10-06T20:38:15.050Z,10.58
2018-10-06T20:40:43.729Z,10.70
2018-10-06T20:43:13.883Z,10.53
2018-10-06T20:45:42.580Z,10.18
2018-10-06T20:48:11.281Z,11.10
2018-10-06T20:50:40.170Z,10.53
2018-10-06T20:53:08.973Z,9.23
2018-10-06T20:55:39.912Z,10.70
2018-10-06T20:58:08.673Z,10.55
2018-10-06T21:00:37.462Z,10.53
2018-10-06T21:03:06.188Z,10.18
2018-10-06T21:05:34.911Z,11.05
2018-10-06T21:08:05.945Z,9.70
2018-10-06T21:10:34.733Z,9.80
2018-10-06T21:13:03.549Z,10.15
2018-10-06T21:15:32.437Z,10.58
2018-10-06T21:18:01.151Z,10.95
2018-10-06T21:20:31.059Z,10.80
2018-10-06T21:23:04.345Z,10.58
2018-10-06T21:25:39.449Z,12.15
2018-10-06T21:28:11.302Z,11.00
2018-10-06T21:30:40.006Z,10.95
2018-10-06T21:33:08.799Z,11.97
2018-10-06T21:35:37.460Z,11.85
2018-10-06T21:38:06.699Z,11.63
2018-10-06T21:40:35.368Z,11.22
2018-10-06T21:43:04.178Z,12.90
2018-10-06T21:45:32.919Z,12.25
2018-10-06T21:48:04.087Z,12.80
2018-10-06T21:50:32.808Z,12.28
2018-10-06T21:53:02.814Z,12.07
2018-10-06T21:55:32.846Z,12.58
2018-10-06T21:58:01.541Z,11.78
2018-10-06T22:00:30.301Z,12.30
2018-10-06T22:02:58.939Z,11.28
2018-10-06T22:05:27.725Z,11.27
2018-10-06T22:07:56.435Z,11.75
2018-10-06T22:10:25.135Z,11.73
2018-10-06T22:12:56.898Z,12.95
2018-10-06T22:15:25.933Z,13.18
2018-10-06T22:17:54.646Z,12.05
2018-10-06T22:20:23.399Z,13.08
2018-10-06T22:22:52.129Z,12.15
2018-10-06T22:25:20.902Z,12.53
2018-10-06T22:27:49.490Z,12.00
2018-10-06T22:30:18.322Z,11.83
2018-10-06T22:32:47.015Z,11.83
2018-10-06T22:35:15.659Z,11.83
2018-10-06T22:37:44.366Z,12.40
2018-10-06T22:40:13.366Z,12.60
2018-10-06T22:42:42.185Z,12.68
2018-10-06T22:45:10.854Z,11.53
2018-10-06T22:47:40.801Z,11.65
2018-10-06T22:50:09.508Z,11.73
2018-10-06T22:52:38.356Z,11.55
2018-10-06T22:55:07.132Z,11.65
2018-10-06T22:57:35.824Z,11.30
2018-10-06T23:00:04.843Z,12.20
2018-10-06T23:02:33.543Z,15.57
2018-10-06T23:05:02.282Z,12.82
2018-10-06T23:07:32.919Z,11.30
2018-10-06T23:10:01.520Z,11.48
2018-10-06T23:12:30.200Z,10.82
2018-10-06T23:14:59.262Z,11.75
2018-10-06T23:17:27.915Z,11.75
2018-10-06T23:19:57.755Z,12.80
2018-10-06T23:22:26.557Z,12.40
2018-10-06T23:24:55.385Z,12.47
2018-10-06T23:27:24.066Z,14.60
2018-10-06T23:29:52.738Z,13.15
2018-10-06T23:32:21.831Z,13.08
2018-10-06T23:34:50.567Z,13.08
2018-10-06T23:37:19.277Z,13.90
2018-10-06T23:39:49.171Z,13.35
2018-10-06T23:42:17.859Z,12.53
2018-10-06T23:44:46.557Z,12.33
2018-10-06T23:47:15.376Z,12.30
2018-10-06T23:49:44.219Z,12.25
2018-10-06T23:52:12.987Z,12.10
2018-10-06T23:54:41.694Z,11.75
2018-10-06T23:57:10.394Z,12.18
2018-10-06T23:59:40.967Z,13.00
